createdAt,value
2022-09-07T00:01:53.589Z,21.38
2022-09-07T00:03:57.604Z,21.43
2022-09-07T00:05:59.948Z,21.46
2022-09-07T00:08:02.101Z,21.43
2022-09-07T00:10:04.259Z,21.42
2022-09-07T00:12:06.334Z,21.30
2022-09-07T00:14:08.516Z,21.21
2022-09-07T00:16:13.578Z,21.06
2022-09-07T00:18:16.081Z,21.03
2022-09-07T00:20:18.420Z,21.01
2022-09-07T00:22:20.486Z,21.02
2022-09-07T00:24:22.548Z,21.07
2022-09-07T00:26:28.231Z,21.13
2022-09-07T00:28:31.274Z,21.09
2022-09-07T00:30:34.142Z,21.03
2022-09-07T00:32:36.368Z,21.00
2022-09-07T00:34:38.473Z,20.95
2022-09-07T00:36:40.524Z,20.95
2022-09-07T00:38:42.819Z,20.95
2022-09-07T00:40:44.935Z,20.96
2022-09-07T00:42:46.969Z,20.96
2022-09-07T00:45:08.770Z,20.85
2022-09-07T00:47:14.294Z,20.91
2022-09-07T00:49:22.120Z,20.84
2022-09-07T00:51:41.113Z,20.84
2022-09-07T00:53:56.075Z,20.83
2022-09-07T00:55:59.635Z,20.83
2022-09-07T00:58:02.509Z,20.81
2022-09-07T01:00:05.927Z,20.70
2022-09-07T01:02:08.537Z,20.70
2022-09-07T01:04:10.901Z,20.70
2022-09-07T01:06:43.542Z,20.57
2022-09-07T01:08:49.916Z,20.66
2022-09-07T01:10:52.002Z,20.71
2022-09-07T01:12:54.378Z,20.72
2022-09-07T01:14:56.726Z,20.81
2022-09-07T01:17:07.632Z,20.83
2022-09-07T01:19:12.627Z,20.85
2022-09-07T01:21:21.041Z,20.73
2022-09-07T01:23:43.475Z,20.67
2022-09-07T01:26:22.494Z,20.66
2022-09-07T01:28:31.265Z,20.69
2022-09-07T01:30:38.176Z,20.63
2022-09-07T01:32:49.779Z,20.64
2022-09-07T01:34:53.934Z,20.61
2022-09-07T01:37:14.362Z,20.57
2022-09-07T01:39:20.001Z,20.56
2022-09-07T01:41:30.364Z,20.41
2022-09-07T01:44:11.257Z,20.39
2022-09-07T01:46:28.925Z,20.41
2022-09-07T01:48:35.100Z,20.51
2022-09-07T01:50:43.475Z,20.42
2022-09-07T01:53:01.154Z,20.37
2022-09-07T01:55:36.361Z,20.44
2022-09-07T01:57:46.398Z,20.30
2022-09-07T02:00:11.048Z,20.29
2022-09-07T02:02:24.723Z,20.32
2022-09-07T02:04:56.289Z,20.31
2022-09-07T02:07:27.574Z,20.27
2022-09-07T02:09:36.446Z,20.22
2022-09-07T02:11:42.363Z,20.12
2022-09-07T02:14:01.020Z,20.16
2022-09-07T02:16:21.385Z,20.14
2022-09-07T02:18:25.878Z,20.16
2022-09-07T02:20:34.625Z,20.01
2022-09-07T02:22:42.309Z,20.05
2022-09-07T02:24:50.534Z,20.10
2022-09-07T02:26:54.588Z,20.14
2022-09-07T02:28:57.463Z,20.14
2022-09-07T02:31:00.242Z,20.13
2022-09-07T02:33:02.238Z,20.14
2022-09-07T02:35:08.564Z,20.13
2022-09-07T02:37:12.979Z,20.13
2022-09-07T02:39:18.020Z,20.16
2022-09-07T02:41:31.467Z,20.20
2022-09-07T02:43:33.892Z,20.28
2022-09-07T02:46:12.848Z,20.29
2022-09-07T02:48:28.990Z,20.35
2022-09-07T02:50:47.944Z,20.36
2022-09-07T02:52:50.048Z,20.39
2022-09-07T02:55:40.064Z,20.37
2022-09-07T02:58:07.533Z,20.40
2022-09-07T03:00:13.366Z,20.41
2022-09-07T03:02:24.415Z,20.35
2022-09-07T03:05:06.825Z,20.40
2022-09-07T03:07:17.628Z,20.40
2022-09-07T03:09:31.289Z,20.47
2022-09-07T03:11:37.084Z,20.43
2022-09-07T03:13:39.082Z,20.41
2022-09-07T03:15:41.207Z,20.44
2022-09-07T03:17:45.480Z,20.40
2022-09-07T03:19:47.816Z,20.44
2022-09-07T03:21:49.950Z,20.40
2022-09-07T03:23:52.095Z,20.39
2022-09-07T03:25:54.383Z,20.39
2022-09-07T03:27:56.958Z,20.44
2022-09-07T03:30:00.804Z,20.46
2022-09-07T03:32:03.126Z,20.46
2022-09-07T03:34:05.124Z,20.47
2022-09-07T03:36:07.943Z,20.47
2022-09-07T03:38:10.289Z,20.46
2022-09-07T03:40:14.024Z,20.50
2022-09-07T03:42:16.270Z,20.50
2022-09-07T03:44:18.365Z,20.54
2022-09-07T03:46:20.947Z,20.58
2022-09-07T03:48:23.435Z,20.65
2022-09-07T03:50:25.839Z,20.65
2022-09-07T03:52:28.177Z,20.69
2022-09-07T03:54:30.396Z,20.66
2022-09-07T03:56:32.700Z,20.64
2022-09-07T03:58:36.011Z,20.64
2022-09-07T04:00:41.531Z,20.53
2022-09-07T04:02:43.784Z,20.54
2022-09-07T04:05:11.704Z,20.44
2022-09-07T04:07:14.334Z,20.44
2022-09-07T04:09:16.743Z,20.44
2022-09-07T04:11:19.646Z,20.41
2022-09-07T04:13:22.404Z,20.35
2022-09-07T04:15:24.885Z,20.38
2022-09-07T04:17:26.887Z,20.38
2022-09-07T04:19:30.296Z,20.37
2022-09-07T04:21:33.856Z,20.34
2022-09-07T04:23:39.557Z,20.34
2022-09-07T04:25:49.606Z,20.24
2022-09-07T04:27:51.893Z,20.29
2022-09-07T04:29:54.066Z,20.28
2022-09-07T04:31:56.714Z,20.35
2022-09-07T04:33:58.855Z,20.33
2022-09-07T04:36:02.107Z,20.29
2022-09-07T04:38:04.455Z,20.25
2022-09-07T04:40:06.951Z,20.27
2022-09-07T04:42:09.292Z,20.22
2022-09-07T04:44:16.932Z,20.25
2022-09-07T04:46:22.791Z,20.28
2022-09-07T04:48:25.139Z,20.29
2022-09-07T04:50:27.247Z,20.22
2022-09-07T04:52:29.631Z,20.26
2022-09-07T04:54:31.683Z,20.21
2022-09-07T04:56:34.152Z,20.20
2022-09-07T04:58:36.620Z,20.23
2022-09-07T05:00:41.742Z,20.21
2022-09-07T05:02:43.917Z,20.26
2022-09-07T05:04:46.073Z,20.21
2022-09-07T05:06:48.653Z,20.17
2022-09-07T05:08:52.892Z,20.25
2022-09-07T05:10:57.528Z,20.26
2022-09-07T05:13:00.038Z,20.28
2022-09-07T05:15:02.310Z,20.28
2022-09-07T05:17:04.635Z,20.31
2022-09-07T05:19:06.625Z,20.31
2022-09-07T05:21:13.333Z,20.31
2022-09-07T05:23:15.352Z,20.36
2022-09-07T05:25:17.573Z,20.37
2022-09-07T05:27:19.675Z,20.39
2022-09-07T05:31:44.065Z,20.37
2022-09-07T05:36:16.580Z,20.42
2022-09-07T05:38:19.106Z,20.47
2022-09-07T05:40:22.355Z,20.52
2022-09-07T05:42:24.599Z,20.51
2022-09-07T05:46:44.522Z,20.52
2022-09-07T05:48:47.118Z,20.50
2022-09-07T05:50:53.145Z,20.51
2022-09-07T05:52:55.337Z,20.51
2022-09-07T05:55:07.765Z,20.54
2022-09-07T05:57:19.777Z,20.60
2022-09-07T05:59:24.909Z,20.59
2022-09-07T06:01:27.038Z,20.58
2022-09-07T06:03:29.925Z,20.58
2022-09-07T06:05:32.193Z,20.54
2022-09-07T06:07:34.447Z,20.58
2022-09-07T06:11:59.750Z,20.61
2022-09-07T06:14:02.033Z,20.51
2022-09-07T06:16:07.431Z,20.57
2022-09-07T06:18:09.763Z,20.61
2022-09-07T06:20:11.909Z,20.65
2022-09-07T06:22:13.960Z,20.63
2022-09-07T06:24:16.264Z,20.59
2022-09-07T06:26:20.340Z,20.65
2022-09-07T06:28:35.404Z,20.60
2022-09-07T06:30:37.499Z,20.65
2022-09-07T06:32:43.046Z,20.60
2022-09-07T06:34:45.688Z,20.66
2022-09-07T06:36:47.850Z,20.70
2022-09-07T06:38:51.845Z,20.67
2022-09-07T06:43:17.288Z,20.55
2022-09-07T06:45:19.926Z,20.66
2022-09-07T06:47:22.100Z,20.63
2022-09-07T06:49:25.754Z,20.63
2022-09-07T06:51:29.041Z,20.63
2022-09-07T06:55:46.624Z,20.66
2022-09-07T06:57:53.341Z,20.74
2022-09-07T06:59:55.615Z,20.77
2022-09-07T07:01:57.706Z,20.85
2022-09-07T07:04:01.925Z,20.94
2022-09-07T07:06:04.781Z,21.00
2022-09-07T07:08:07.160Z,21.10
2022-09-07T07:10:09.838Z,21.10
2022-09-07T07:12:12.224Z,21.11
2022-09-07T07:14:15.563Z,21.12
2022-09-07T07:16:18.488Z,21.18
2022-09-07T07:18:21.474Z,21.24
2022-09-07T07:20:23.745Z,21.26
2022-09-07T07:24:48.455Z,21.35
2022-09-07T07:26:50.547Z,21.37
2022-09-07T07:29:03.321Z,21.43
2022-09-07T07:31:10.398Z,21.49
2022-09-07T07:33:14.314Z,21.47
2022-09-07T07:35:16.724Z,21.57
2022-09-07T07:37:19.285Z,21.67
2022-09-07T07:42:03.020Z,21.74
2022-09-07T07:44:06.223Z,21.73
2022-09-07T07:46:12.174Z,21.74
2022-09-07T07:48:14.621Z,21.79
2022-09-07T07:50:33.700Z,21.89
2022-09-07T07:55:01.782Z,21.92
2022-09-07T07:57:07.893Z,21.95
2022-09-07T07:59:15.041Z,21.97
2022-09-07T08:01:18.682Z,21.90
2022-09-07T08:03:25.378Z,21.95
2022-09-07T08:05:27.909Z,22.08
2022-09-07T08:07:30.296Z,22.16
2022-09-07T08:09:32.828Z,22.21
2022-09-07T08:11:35.610Z,22.17
2022-09-07T08:13:40.597Z,22.27
2022-09-07T08:15:46.718Z,22.33
2022-09-07T08:17:49.823Z,22.41
2022-09-07T08:19:52.512Z,22.53
2022-09-07T08:21:54.632Z,22.68
2022-09-07T08:23:56.543Z,22.76
2022-09-07T08:25:59.917Z,22.82
2022-09-07T08:28:02.472Z,22.93
2022-09-07T08:30:05.479Z,22.84
2022-09-07T08:32:07.654Z,22.97
2022-09-07T08:34:10.252Z,23.00
2022-09-07T08:36:17.092Z,22.98
2022-09-07T08:38:22.229Z,23.00
2022-09-07T08:40:24.179Z,23.11
2022-09-07T08:42:48.887Z,23.07
2022-09-07T08:45:17.682Z,23.12
2022-09-07T08:47:43.825Z,23.33
2022-09-07T08:49:52.935Z,23.43
2022-09-07T08:52:00.856Z,23.57
2022-09-07T08:54:04.660Z,23.75
2022-09-07T08:56:12.288Z,23.82
2022-09-07T08:58:48.842Z,23.93
2022-09-07T09:01:30.745Z,24.04
2022-09-07T09:03:35.010Z,24.02
2022-09-07T09:06:02.941Z,24.03
2022-09-07T09:08:10.964Z,24.08
2022-09-07T09:10:31.455Z,24.21
2022-09-07T09:12:56.715Z,24.26
2022-09-07T09:15:11.151Z,24.30
2022-09-07T09:17:23.621Z,24.40
2022-09-07T09:19:46.880Z,24.48
2022-09-07T09:22:11.551Z,24.54
2022-09-07T09:24:17.748Z,24.59
2022-09-07T09:26:31.606Z,24.69
2022-09-07T09:28:33.937Z,24.79
2022-09-07T09:30:36.238Z,24.78
2022-09-07T09:32:43.459Z,24.80
2022-09-07T09:35:01.951Z,24.86
2022-09-07T09:37:04.012Z,24.95
2022-09-07T09:39:37.732Z,24.88
2022-09-07T09:41:40.248Z,24.98
2022-09-07T09:43:55.386Z,25.09
2022-09-07T09:46:14.170Z,25.18
2022-09-07T09:48:21.261Z,25.09
2022-09-07T09:52:56.539Z,25.15
2022-09-07T09:55:17.223Z,25.19
2022-09-07T09:59:04.874Z,25.07
2022-09-07T10:00:22.439Z,25.17
2022-09-07T10:04:54.593Z,25.45
2022-09-07T10:07:23.222Z,25.53
2022-09-07T10:09:29.547Z,25.63
2022-09-07T10:12:07.658Z,25.61
2022-09-07T10:14:32.103Z,25.71
2022-09-07T10:16:40.712Z,25.78
2022-09-07T10:19:03.101Z,25.77
2022-09-07T10:21:17.145Z,25.90
2022-09-07T10:23:27.783Z,26.02
2022-09-07T10:25:34.164Z,26.03
2022-09-07T10:27:41.053Z,26.11
2022-09-07T10:29:43.169Z,26.22
2022-09-07T10:31:56.958Z,26.31
2022-09-07T10:36:45.871Z,26.49
2022-09-07T10:39:13.397Z,26.53
2022-09-07T10:41:19.378Z,26.57
2022-09-07T10:43:43.741Z,26.63
2022-09-07T10:46:07.459Z,26.74
2022-09-07T10:48:15.600Z,26.90
2022-09-07T10:50:32.381Z,27.03
2022-09-07T10:52:42.992Z,27.13
2022-09-07T10:55:08.204Z,27.19
2022-09-07T10:57:31.997Z,27.22
2022-09-07T11:00:10.963Z,27.22
2022-09-07T11:02:31.553Z,27.25
2022-09-07T11:05:04.707Z,27.25
2022-09-07T11:07:16.719Z,27.35
2022-09-07T11:09:32.308Z,27.46
2022-09-07T11:12:07.387Z,27.50
2022-09-07T11:14:16.937Z,27.61
2022-09-07T11:21:57.304Z,27.92
2022-09-07T11:24:22.511Z,27.95
2022-09-07T11:26:41.135Z,27.99
2022-09-07T11:31:30.459Z,28.16
2022-09-07T11:36:20.097Z,28.25
2022-09-07T11:38:34.475Z,28.29
2022-09-07T11:40:42.993Z,28.36
2022-09-07T11:42:59.849Z,28.31
2022-09-07T11:45:29.911Z,28.34
2022-09-07T11:47:35.808Z,28.34
2022-09-07T11:49:38.425Z,28.37
2022-09-07T11:51:46.893Z,28.39
2022-09-07T11:54:08.903Z,28.41
2022-09-07T11:56:20.798Z,28.40
2022-09-07T11:58:48.077Z,28.37
2022-09-07T12:00:53.297Z,28.42
2022-09-07T12:03:05.480Z,28.38
2022-09-07T12:05:45.033Z,28.38
2022-09-07T12:08:22.295Z,28.36
2022-09-07T12:10:56.085Z,28.42
2022-09-07T12:13:23.085Z,28.32
2022-09-07T12:15:36.567Z,28.25
2022-09-07T12:17:41.465Z,28.33
2022-09-07T12:19:43.581Z,28.21
2022-09-07T12:21:48.459Z,28.26
2022-09-07T12:23:50.415Z,28.33
2022-09-07T12:25:53.088Z,28.38
2022-09-07T12:27:55.374Z,28.44
2022-09-07T12:30:02.013Z,28.49
2022-09-07T12:34:32.597Z,28.43
2022-09-07T12:36:34.752Z,28.39
2022-09-07T12:39:04.462Z,28.09
2022-09-07T12:41:39.786Z,28.17
2022-09-07T12:43:44.727Z,28.18
2022-09-07T12:45:54.300Z,28.27
2022-09-07T12:48:05.562Z,28.37
2022-09-07T12:50:26.632Z,28.38
2022-09-07T12:52:39.454Z,28.38
2022-09-07T12:55:28.260Z,28.33
2022-09-07T12:57:56.008Z,28.31
2022-09-07T13:00:21.002Z,28.36
2022-09-07T13:02:48.878Z,28.44
2022-09-07T13:05:17.265Z,28.38
2022-09-07T13:07:25.293Z,28.40
2022-09-07T13:09:38.541Z,28.44
2022-09-07T13:11:40.921Z,28.52
2022-09-07T13:14:04.765Z,28.53
2022-09-07T13:16:11.783Z,28.62
2022-09-07T13:18:26.857Z,28.60
2022-09-07T13:20:37.628Z,28.69
2022-09-07T13:22:42.096Z,28.70
2022-09-07T13:24:55.269Z,28.65
2022-09-07T13:27:43.719Z,28.69
2022-09-07T13:29:55.522Z,28.69
2022-09-07T13:32:15.832Z,28.69
2022-09-07T13:34:44.783Z,28.65
2022-09-07T13:36:48.782Z,28.77
2022-09-07T13:38:52.204Z,28.79
2022-09-07T13:40:58.873Z,28.88
2022-09-07T13:43:04.035Z,28.91
2022-09-07T13:45:08.352Z,28.91
2022-09-07T13:47:30.944Z,28.90
2022-09-07T13:52:13.706Z,29.01
2022-09-07T13:54:34.120Z,29.00
2022-09-07T13:56:54.178Z,28.97
2022-09-07T13:58:56.852Z,29.00
2022-09-07T14:01:03.357Z,29.03
2022-09-07T14:03:07.617Z,29.06
2022-09-07T14:05:11.978Z,29.15
2022-09-07T14:07:17.336Z,29.19
2022-09-07T14:09:22.305Z,29.26
2022-09-07T14:11:43.265Z,29.29
2022-09-07T14:13:45.515Z,29.30
2022-09-07T14:15:50.201Z,29.31
2022-09-07T14:18:04.660Z,29.26
2022-09-07T14:20:07.608Z,29.24
2022-09-07T14:22:19.444Z,29.20
2022-09-07T14:24:35.689Z,29.20
2022-09-07T14:26:46.847Z,29.17
2022-09-07T14:28:52.256Z,29.18
2022-09-07T14:30:54.615Z,29.18
2022-09-07T14:33:01.070Z,29.15
2022-09-07T14:35:04.859Z,29.15
2022-09-07T14:37:12.531Z,29.09
2022-09-07T14:39:17.613Z,29.07
2022-09-07T14:41:23.186Z,29.01
2022-09-07T14:43:34.535Z,29.01
2022-09-07T14:45:37.837Z,28.99
2022-09-07T14:47:41.014Z,28.99
2022-09-07T14:49:43.755Z,29.00
2022-09-07T14:51:48.433Z,28.95
2022-09-07T14:53:55.820Z,28.94
2022-09-07T14:56:04.028Z,28.94
2022-09-07T14:58:15.269Z,28.97
2022-09-07T15:00:32.514Z,28.93
2022-09-07T15:02:37.188Z,28.90
2022-09-07T15:04:41.942Z,28.88
2022-09-07T15:07:02.661Z,28.91
2022-09-07T15:09:06.992Z,28.86
2022-09-07T15:11:35.397Z,28.87
2022-09-07T15:13:40.849Z,28.87
2022-09-07T15:15:46.741Z,28.90
2022-09-07T15:17:49.534Z,28.84
2022-09-07T15:19:52.071Z,28.81
2022-09-07T15:21:55.967Z,28.76
2022-09-07T15:24:00.488Z,28.72
2022-09-07T15:26:02.986Z,28.74
2022-09-07T15:28:05.423Z,28.76
2022-09-07T15:30:11.050Z,28.78
2022-09-07T15:32:15.811Z,28.78
2022-09-07T15:34:20.194Z,28.71
2022-09-07T15:36:24.655Z,28.65
2022-09-07T15:41:22.079Z,28.54
2022-09-07T15:43:21.605Z,28.55
2022-09-07T15:45:25.205Z,28.54
2022-09-07T15:47:47.253Z,28.57
2022-09-07T15:49:53.905Z,28.56
2022-09-07T15:52:11.735Z,28.60
2022-09-07T15:54:15.351Z,28.58
2022-09-07T15:56:19.933Z,28.52
2022-09-07T15:58:22.421Z,28.58
2022-09-07T16:00:24.893Z,28.57
2022-09-07T16:04:48.945Z,28.48
2022-09-07T16:06:51.107Z,28.41
2022-09-07T16:08:53.331Z,28.38
2022-09-07T16:10:56.448Z,28.34
2022-09-07T16:13:11.499Z,28.27
2022-09-07T16:15:18.467Z,28.30
2022-09-07T16:17:27.452Z,28.32
2022-09-07T16:19:40.635Z,28.36
2022-09-07T16:21:43.354Z,28.35
2022-09-07T16:23:51.109Z,28.35
2022-09-07T16:26:00.824Z,28.27
2022-09-07T16:28:05.671Z,28.27
2022-09-07T16:30:08.578Z,28.24
2022-09-07T16:34:39.016Z,28.25
2022-09-07T16:36:40.963Z,28.23
2022-09-07T16:38:50.034Z,28.18
2022-09-07T16:40:52.408Z,28.12
2022-09-07T16:42:54.889Z,28.04
2022-09-07T16:46:02.538Z,28.06
2022-09-07T16:47:19.406Z,28.06
2022-09-07T16:49:21.689Z,28.01
2022-09-07T16:51:25.037Z,28.00
2022-09-07T16:53:28.237Z,28.00
2022-09-07T16:55:30.720Z,28.01
2022-09-07T16:58:35.197Z,28.01
2022-09-07T16:59:55.267Z,28.00
2022-09-07T17:01:57.409Z,27.98
2022-09-07T17:04:00.481Z,27.95
2022-09-07T17:06:04.080Z,27.94
2022-09-07T17:08:06.879Z,27.89
2022-09-07T17:10:11.798Z,27.79
2022-09-07T17:12:14.117Z,27.70
2022-09-07T17:14:16.536Z,27.62
2022-09-07T17:16:21.675Z,27.60
2022-09-07T17:20:58.566Z,27.48
2022-09-07T17:23:01.683Z,27.48
2022-09-07T17:25:04.125Z,27.50
2022-09-07T17:27:06.368Z,27.49
2022-09-07T17:29:09.202Z,27.47
2022-09-07T17:32:23.753Z,27.44
2022-09-07T17:33:37.470Z,27.36
2022-09-07T17:35:42.094Z,27.31
2022-09-07T17:37:44.312Z,27.29
2022-09-07T17:39:46.270Z,27.29
2022-09-07T17:41:52.640Z,27.27
2022-09-07T17:43:56.979Z,27.25
2022-09-07T17:46:04.419Z,27.18
2022-09-07T17:48:06.788Z,27.15
2022-09-07T17:50:09.248Z,27.10
2022-09-07T17:52:11.487Z,27.08
2022-09-07T17:54:16.316Z,27.07
2022-09-07T17:56:18.267Z,27.01
2022-09-07T17:58:20.632Z,26.96
2022-09-07T18:00:22.835Z,26.92
2022-09-07T18:02:28.632Z,26.90
2022-09-07T18:04:33.610Z,26.86
2022-09-07T18:06:36.210Z,26.83
2022-09-07T18:08:38.951Z,26.79
2022-09-07T18:13:05.945Z,26.69
2022-09-07T18:15:12.531Z,26.66
2022-09-07T18:17:14.605Z,26.53
2022-09-07T18:19:18.328Z,26.55
2022-09-07T18:21:28.323Z,26.49
2022-09-07T18:23:30.581Z,26.47
2022-09-07T18:25:34.996Z,26.41
2022-09-07T18:27:39.523Z,26.38
2022-09-07T18:29:41.808Z,26.36
2022-09-07T18:31:43.994Z,26.30
2022-09-07T18:33:47.674Z,26.26
2022-09-07T18:35:50.057Z,26.25
2022-09-07T18:37:53.470Z,26.19
2022-09-07T18:39:57.510Z,26.15
2022-09-07T18:41:59.669Z,26.11
2022-09-07T18:44:02.508Z,26.06
2022-09-07T18:46:23.270Z,25.96
2022-09-07T18:48:25.698Z,25.92
2022-09-07T18:50:27.678Z,25.88
2022-09-07T18:54:55.001Z,25.80
2022-09-07T18:56:58.173Z,25.79
2022-09-07T18:59:00.608Z,25.75
2022-09-07T19:01:07.845Z,25.71
2022-09-07T19:03:10.968Z,25.68
2022-09-07T19:07:35.625Z,25.62
2022-09-07T19:09:38.804Z,25.61
2022-09-07T19:11:42.538Z,25.59
2022-09-07T19:13:45.957Z,25.57
2022-09-07T19:15:47.841Z,25.54
2022-09-07T19:17:49.910Z,25.53
2022-09-07T19:19:52.871Z,25.41
2022-09-07T19:21:57.783Z,25.31
2022-09-07T19:24:02.627Z,25.25
2022-09-07T19:26:07.406Z,25.18
2022-09-07T19:28:09.596Z,25.17
2022-09-07T19:30:12.179Z,25.12
2022-09-07T19:32:14.412Z,25.05
2022-09-07T19:34:17.153Z,24.96
2022-09-07T19:36:19.076Z,24.94
2022-09-07T19:38:21.323Z,24.86
2022-09-07T19:40:23.338Z,24.85
2022-09-07T19:42:27.972Z,24.79
2022-09-07T19:44:32.443Z,24.78
2022-09-07T19:46:34.671Z,24.70
2022-09-07T19:48:37.845Z,24.71
2022-09-07T19:50:39.657Z,24.70
2022-09-07T19:52:41.483Z,24.75
2022-09-07T19:54:43.912Z,24.76
2022-09-07T19:56:46.362Z,24.72
2022-09-07T19:58:55.063Z,24.75
2022-09-07T20:00:57.625Z,24.79
2022-09-07T20:02:59.976Z,24.70
2022-09-07T20:05:02.283Z,24.66
2022-09-07T20:07:04.406Z,24.67
2022-09-07T20:09:08.260Z,24.69
2022-09-07T20:11:14.207Z,24.60
2022-09-07T20:13:16.538Z,24.58
2022-09-07T20:15:18.637Z,24.52
2022-09-07T20:17:20.597Z,24.50
2022-09-07T20:19:22.731Z,24.52
2022-09-07T20:21:26.106Z,24.52
2022-09-07T20:23:28.500Z,24.53
2022-09-07T20:25:30.830Z,24.52
2022-09-07T20:27:35.910Z,24.51
2022-09-07T20:29:38.513Z,24.49
2022-09-07T20:31:40.732Z,24.48
2022-09-07T20:33:44.947Z,24.43
2022-09-07T20:35:48.020Z,24.40
2022-09-07T20:37:50.337Z,24.34
2022-09-07T20:39:52.281Z,24.32
2022-09-07T20:41:54.188Z,24.32
2022-09-07T20:43:59.198Z,24.31
2022-09-07T20:46:01.587Z,24.28
2022-09-07T20:48:03.851Z,24.30
2022-09-07T20:50:06.757Z,24.26
2022-09-07T20:52:09.023Z,24.24
2022-09-07T20:54:11.025Z,24.24
2022-09-07T20:56:21.593Z,24.17
2022-09-07T20:58:23.823Z,24.14
2022-09-07T21:00:26.345Z,24.12
2022-09-07T21:02:28.475Z,24.03
2022-09-07T21:04:30.566Z,23.95
2022-09-07T21:06:33.017Z,23.95
2022-09-07T21:08:39.213Z,23.95
2022-09-07T21:10:43.009Z,23.95
2022-09-07T21:12:45.132Z,23.88
2022-09-07T21:14:47.598Z,23.90
2022-09-07T21:16:49.560Z,23.88
2022-09-07T21:18:59.733Z,23.79
2022-09-07T21:21:19.359Z,23.79
2022-09-07T21:23:23.366Z,23.77
2022-09-07T21:25:25.799Z,23.73
2022-09-07T21:27:28.310Z,23.72
2022-09-07T21:29:30.443Z,23.66
2022-09-07T21:31:33.939Z,23.66
2022-09-07T21:33:37.813Z,23.65
2022-09-07T21:35:40.609Z,23.68
2022-09-07T21:37:42.700Z,23.65
2022-09-07T21:39:46.156Z,23.63
2022-09-07T21:41:48.338Z,23.51
2022-09-07T21:43:57.869Z,23.47
2022-09-07T21:46:25.062Z,23.48
2022-09-07T21:48:27.413Z,23.44
2022-09-07T21:50:30.090Z,23.40
2022-09-07T21:52:32.209Z,23.37
2022-09-07T21:54:34.219Z,23.32
2022-09-07T21:56:36.705Z,23.30
2022-09-07T21:58:40.121Z,23.34
2022-09-07T22:00:43.982Z,23.29
2022-09-07T22:02:45.965Z,23.23
2022-09-07T22:04:48.349Z,23.18
2022-09-07T22:06:50.470Z,23.18
2022-09-07T22:08:52.439Z,23.07
2022-09-07T22:10:54.487Z,23.02
2022-09-07T22:12:56.784Z,23.03
2022-09-07T22:14:58.937Z,23.00
2022-09-07T22:17:00.897Z,22.93
2022-09-07T22:19:03.253Z,22.92
2022-09-07T22:21:13.960Z,22.89
2022-09-07T22:23:15.885Z,22.76
2022-09-07T22:25:21.614Z,22.64
2022-09-07T22:27:23.647Z,22.49
2022-09-07T22:29:25.866Z,22.45
2022-09-07T22:31:30.835Z,22.45
2022-09-07T22:33:33.066Z,22.43
2022-09-07T22:35:35.408Z,22.36
2022-09-07T22:37:37.767Z,22.34
2022-09-07T22:39:39.883Z,22.35
2022-09-07T22:41:42.464Z,22.35
2022-09-07T22:43:45.423Z,22.41
2022-09-07T22:45:47.477Z,22.42
2022-09-07T22:47:49.542Z,22.37
2022-09-07T22:49:51.845Z,22.43
2022-09-07T22:51:53.922Z,22.45
2022-09-07T22:53:56.329Z,22.47
2022-09-07T22:55:59.374Z,22.50
2022-09-07T22:58:01.241Z,22.51
2022-09-07T23:00:04.478Z,22.52
2022-09-07T23:02:06.458Z,22.41
2022-09-07T23:04:10.198Z,22.31
2022-09-07T23:06:22.648Z,22.16
2022-09-07T23:08:25.598Z,22.17
2022-09-07T23:10:28.544Z,22.18
2022-09-07T23:12:31.436Z,22.12
2022-09-07T23:14:33.835Z,22.07
2022-09-07T23:16:35.900Z,22.09
2022-09-07T23:18:41.204Z,21.99
2022-09-07T23:20:43.485Z,22.02
2022-09-07T23:22:48.376Z,21.90
2022-09-07T23:24:50.483Z,21.94
2022-09-07T23:26:52.488Z,21.90
2022-09-07T23:28:57.361Z,21.87
2022-09-07T23:30:59.693Z,21.81
2022-09-07T23:33:02.784Z,21.70
2022-09-07T23:35:05.719Z,21.65
2022-09-07T23:37:07.750Z,21.61
2022-09-07T23:39:09.903Z,21.61
2022-09-07T23:41:14.126Z,21.58
2022-09-07T23:43:16.315Z,21.55
2022-09-07T23:45:18.528Z,21.57
2022-09-07T23:47:20.744Z,21.62
2022-09-07T23:49:23.006Z,21.69
2022-09-07T23:51:25.300Z,21.71
2022-09-07T23:53:27.399Z,21.70
2022-09-07T23:55:29.944Z,21.73
2022-09-07T23:57:32.208Z,21.67
2022-09-07T23:59:34.387Z,21.65
